Time;durP1;ratioP1;P1;durP2;ratioP2;P2;SDS_P1;SDS_P2;PMS_P1;PMS_P2;Temp;Humidity;BMP_temperature;BMP_pressure;BME280_temperature;BME280_humidity;BME280_pressure;Samples;Min_cycle;Max_cycle;Signal;HPM_P1;HPM_P2
2022/01/08 00:01:36;;;;;;;10.40;6.80;;;0.90;99.90;;;;;;5029002;28;20778;-55
2022/01/08 00:04:02;;;;;;;8.30;6.10;;;0.90;99.90;;;;;;5027881;28;20183;-55
2022/01/08 00:06:28;;;;;;;9.20;5.93;;;0.90;99.90;;;;;;5029083;28;20179;-55
2022/01/08 00:08:54;;;;;;;9.93;7.10;;;0.90;99.90;;;;;;5029645;28;20181;-55
2022/01/08 00:11:21;;;;;;;9.13;6.20;;;0.80;99.90;;;;;;5029384;28;20285;-54
2022/01/08 00:13:47;;;;;;;10.00;6.30;;;0.80;99.90;;;;;;5030500;28;20360;-55
2022/01/08 00:16:13;;;;;;;8.43;6.10;;;0.80;99.90;;;;;;5028600;28;20429;-55
2022/01/08 00:18:39;;;;;;;9.43;6.10;;;0.80;99.90;;;;;;5032479;28;20432;-55
2022/01/08 00:21:05;;;;;;;12.53;6.70;;;0.80;99.90;;;;;;5035403;28;20448;-54
2022/01/08 00:23:31;;;;;;;12.03;6.70;;;0.80;99.90;;;;;;5030405;28;20181;-56
2022/01/08 00:25:58;;;;;;;9.47;6.53;;;0.80;99.90;;;;;;5032598;28;20574;-55
2022/01/08 00:28:25;;;;;;;8.00;5.90;;;0.80;99.90;;;;;;5041334;28;20170;-54
2022/01/08 00:30:51;;;;;;;10.10;7.03;;;0.80;99.90;;;;;;5029041;28;20456;-54
2022/01/08 00:33:16;;;;;;;13.30;7.10;;;0.90;99.90;;;;;;5042640;28;20419;-55
2022/01/08 00:35:42;;;;;;;8.27;6.90;;;0.90;99.90;;;;;;5040757;28;20185;-57
2022/01/08 00:38:08;;;;;;;10.03;7.37;;;0.90;99.90;;;;;;5031028;28;20330;-55
2022/01/08 00:40:34;;;;;;;8.20;6.20;;;0.90;99.90;;;;;;5029640;28;20279;-55
2022/01/08 00:42:59;;;;;;;7.13;5.90;;;0.90;99.90;;;;;;5030778;28;20730;-54
2022/01/08 00:45:25;;;;;;;9.37;6.67;;;0.90;99.90;;;;;;5029199;28;20271;-55
2022/01/08 00:47:51;;;;;;;9.10;6.03;;;0.90;99.90;;;;;;5035829;28;20174;-54
2022/01/08 00:50:17;;;;;;;9.90;6.30;;;0.90;99.90;;;;;;5045061;23;20240;-58
2022/01/08 00:52:43;;;;;;;8.13;5.57;;;0.90;99.90;;;;;;5009611;28;20910;-58
2022/01/08 00:55:10;;;;;;;8.37;5.90;;;1.00;99.90;;;;;;5006895;28;20544;-58
2022/01/08 00:57:36;;;;;;;9.00;6.40;;;1.00;99.90;;;;;;5011098;28;20418;-59
2022/01/08 01:00:04;;;;;;;9.63;5.83;;;1.00;99.90;;;;;;5003303;28;20434;-59
2022/01/08 01:02:30;;;;;;;8.00;5.03;;;1.00;99.90;;;;;;5006610;28;20457;-59
2022/01/08 01:04:56;;;;;;;10.63;6.47;;;1.00;99.90;;;;;;5006157;28;20970;-58
2022/01/08 01:07:21;;;;;;;9.43;6.20;;;1.00;99.90;;;;;;5016899;28;20204;-59
2022/01/08 01:09:47;;;;;;;8.60;5.33;;;1.00;99.90;;;;;;5010418;28;20167;-60
2022/01/08 01:12:13;;;;;;;9.40;6.70;;;1.00;99.90;;;;;;5010966;28;20694;-59
2022/01/08 01:14:39;;;;;;;8.47;5.40;;;1.00;99.90;;;;;;5010741;28;20717;-58
2022/01/08 01:17:04;;;;;;;8.93;6.33;;;1.00;99.90;;;;;;5011406;28;20924;-59
2022/01/08 01:19:30;;;;;;;9.07;6.20;;;1.00;99.90;;;;;;5004094;28;20505;-59
2022/01/08 01:21:58;;;;;;;7.40;5.97;;;1.00;99.90;;;;;;4990466;28;20360;-60
2022/01/08 01:24:26;;;;;;;10.00;5.60;;;1.00;99.90;;;;;;5010737;28;20258;-59
2022/01/08 01:29:33;;;;;;;14.40;8.10;;;1.10;99.90;;;;;;5005777;28;20438;-58
2022/01/08 01:48:15;;;;;;;6.03;4.90;;;1.10;99.90;;;;;;5004990;28;20507;-59
2022/01/08 01:50:41;;;;;;;6.43;4.60;;;1.10;99.90;;;;;;5008567;28;20957;-58
2022/01/08 01:53:06;;;;;;;8.67;4.50;;;1.10;99.90;;;;;;5002663;28;20190;-59
2022/01/08 01:55:32;;;;;;;4.40;3.67;;;1.10;99.90;;;;;;5013922;28;22011;-57
2022/01/08 01:58:00;;;;;;;8.13;4.00;;;1.20;99.90;;;;;;5012254;28;20175;-59
2022/01/08 02:00:26;;;;;;;6.57;3.83;;;1.20;99.90;;;;;;5005120;28;20201;-59
2022/01/08 02:02:52;;;;;;;6.13;3.60;;;1.10;99.90;;;;;;5004136;28;20469;-59
2022/01/08 02:05:17;;;;;;;7.10;3.87;;;1.20;99.90;;;;;;4991308;28;20523;-58
2022/01/08 02:07:43;;;;;;;4.37;3.60;;;1.20;99.90;;;;;;5020298;28;20259;-59
2022/01/08 02:10:09;;;;;;;4.80;3.53;;;1.20;99.90;;;;;;5008768;28;20630;-56
2022/01/08 02:12:35;;;;;;;7.47;3.67;;;1.20;99.90;;;;;;5008692;28;20413;-59
2022/01/08 02:15:01;;;;;;;5.77;3.10;;;1.20;99.90;;;;;;5009462;28;20427;-59
2022/01/08 02:17:27;;;;;;;3.10;2.80;;;1.20;99.90;;;;;;5013669;28;20178;-59
2022/01/08 02:19:54;;;;;;;7.37;3.90;;;1.20;99.90;;;;;;5014370;28;20428;-59
2022/01/08 02:22:20;;;;;;;3.50;3.20;;;1.20;99.90;;;;;;5015184;28;20348;-59
2022/01/08 02:24:47;;;;;;;2.93;2.63;;;1.20;99.90;;;;;;5011201;28;20841;-58
2022/01/08 02:27:14;;;;;;;3.17;2.67;;;1.20;99.90;;;;;;5004755;28;20438;-59
2022/01/08 02:29:40;;;;;;;3.37;2.77;;;1.20;99.90;;;;;;5013218;28;20426;-59
2022/01/08 02:32:12;;;;;;;3.47;2.70;;;1.20;99.90;;;;;;5013334;28;20519;-58
2022/01/08 02:34:40;;;;;;;2.93;2.67;;;1.20;99.90;;;;;;5011073;28;20171;-59
2022/01/08 02:37:07;;;;;;;4.23;3.10;;;1.20;99.90;;;;;;5007530;28;20436;-59
2022/01/08 02:39:41;;;;;;;3.43;2.97;;;1.20;99.90;;;;;;5009106;28;20499;-59
2022/01/08 02:42:10;;;;;;;2.97;2.67;;;1.20;99.90;;;;;;5009419;28;21040;-59
2022/01/08 02:44:36;;;;;;;4.07;3.53;;;1.20;99.90;;;;;;4989372;28;20521;-59
2022/01/08 02:47:03;;;;;;;3.07;2.73;;;1.20;99.90;;;;;;5011870;28;20520;-56
2022/01/08 02:49:32;;;;;;;4.57;3.00;;;1.10;99.90;;;;;;5014014;28;20232;-61
2022/01/08 02:51:58;;;;;;;4.70;3.50;;;1.10;99.90;;;;;;5013316;28;20979;-58
2022/01/08 02:54:24;;;;;;;3.90;3.27;;;1.10;99.90;;;;;;5013847;28;20429;-58
2022/01/08 02:56:50;;;;;;;3.80;3.10;;;1.10;99.90;;;;;;4992946;28;20182;-60
2022/01/08 02:59:17;;;;;;;5.33;2.90;;;1.00;99.90;;;;;;4997095;28;20202;-59
2022/01/08 03:01:42;;;;;;;3.33;3.00;;;1.00;99.90;;;;;;5006302;28;20921;-59
2022/01/08 03:04:09;;;;;;;2.57;2.37;;;1.00;99.90;;;;;;4994069;28;20528;-58
2022/01/08 03:06:35;;;;;;;4.20;2.97;;;1.00;99.90;;;;;;5011750;28;20181;-60
2022/01/08 03:09:01;;;;;;;3.57;2.93;;;1.00;99.90;;;;;;5005318;28;20793;-58
2022/01/08 03:11:26;;;;;;;3.27;2.93;;;1.00;99.90;;;;;;5009833;28;20518;-58
2022/01/08 03:13:52;;;;;;;4.40;2.93;;;1.00;99.90;;;;;;5000069;28;20230;-59
2022/01/08 03:16:18;;;;;;;3.97;3.57;;;1.00;99.90;;;;;;5007636;28;20657;-57
2022/01/08 03:18:44;;;;;;;2.77;2.53;;;1.00;99.90;;;;;;5002017;28;20667;-59
2022/01/08 03:21:15;;;;;;;3.57;2.70;;;1.00;99.90;;;;;;5007855;28;20776;-59
2022/01/08 03:23:48;;;;;;;3.23;2.40;;;1.00;99.90;;;;;;5012402;28;20425;-59
2022/01/08 03:26:18;;;;;;;2.90;2.67;;;1.00;99.90;;;;;;5014710;28;20940;-60
2022/01/08 03:28:44;;;;;;;2.87;2.63;;;1.00;99.90;;;;;;5023655;28;20435;-58
2022/01/08 03:31:11;;;;;;;2.67;2.30;;;1.00;99.90;;;;;;5017193;28;20459;-58
2022/01/08 03:33:37;;;;;;;2.27;2.10;;;1.00;99.90;;;;;;5010462;28;20704;-58
2022/01/08 03:36:04;;;;;;;1.90;1.77;;;1.00;99.90;;;;;;4997960;28;20458;-58
2022/01/08 03:38:31;;;;;;;2.40;1.70;;;1.00;99.90;;;;;;4974884;28;20607;-59
2022/01/08 03:40:57;;;;;;;2.10;1.90;;;1.00;99.90;;;;;;4997197;28;20448;-59
2022/01/08 03:43:22;;;;;;;1.70;1.60;;;1.00;99.90;;;;;;5015777;28;20477;-58
2022/01/08 03:45:48;;;;;;;1.73;1.63;;;1.00;99.90;;;;;;5011623;28;20931;-58
2022/01/08 03:48:28;;;;;;;1.40;1.30;;;1.00;99.90;;;;;;4991068;28;20279;-59
2022/01/08 03:50:54;;;;;;;2.00;1.80;;;1.00;99.90;;;;;;4997723;28;20296;-59
2022/01/08 03:53:20;;;;;;;1.20;1.20;;;1.00;99.90;;;;;;5011809;28;20851;-58
2022/01/08 03:55:46;;;;;;;1.10;1.10;;;1.00;99.90;;;;;;5013092;28;20444;-59
2022/01/08 03:58:11;;;;;;;1.30;1.20;;;1.00;99.90;;;;;;5010946;28;20491;-58
2022/01/08 04:00:37;;;;;;;2.00;1.53;;;1.00;99.90;;;;;;4993434;28;20253;-59
2022/01/08 04:03:03;;;;;;;1.50;1.40;;;1.00;99.90;;;;;;5004166;28;20274;-56
2022/01/08 04:05:29;;;;;;;1.07;1.00;;;1.00;99.90;;;;;;5010044;28;20423;-59
2022/01/08 04:07:54;;;;;;;1.00;1.00;;;1.00;99.90;;;;;;5011311;28;20182;-59
2022/01/08 04:10:20;;;;;;;1.00;1.00;;;1.00;99.90;;;;;;5005428;28;20449;-59
2022/01/08 04:12:50;;;;;;;1.00;1.00;;;1.00;99.90;;;;;;5018057;28;20554;-59
2022/01/08 04:15:37;;;;;;;1.07;1.07;;;1.00;99.90;;;;;;5015180;28;20659;-58
2022/01/08 04:18:03;;;;;;;1.00;1.00;;;1.00;99.90;;;;;;4994570;28;20406;-59
2022/01/08 04:20:29;;;;;;;1.37;1.27;;;1.10;99.90;;;;;;5005220;28;20465;-58
2022/01/08 04:22:55;;;;;;;0.90;0.90;;;1.00;99.90;;;;;;5006782;28;20469;-59
2022/01/08 04:25:22;;;;;;;1.00;1.00;;;1.10;99.90;;;;;;5010414;28;20169;-57
2022/01/08 04:27:48;;;;;;;1.07;1.00;;;1.10;99.90;;;;;;4989015;28;20425;-59
2022/01/08 04:30:15;;;;;;;1.00;1.00;;;1.10;99.90;;;;;;5010748;28;20472;-58
2022/01/08 04:32:41;;;;;;;1.30;1.20;;;1.10;99.90;;;;;;5004218;28;20437;-58
2022/01/08 04:35:07;;;;;;;1.00;1.00;;;1.10;99.90;;;;;;5007081;28;21001;-59
2022/01/08 04:37:33;;;;;;;1.17;1.10;;;1.10;99.90;;;;;;5022552;28;20436;-59
2022/01/08 04:39:58;;;;;;;1.40;1.30;;;1.10;99.90;;;;;;5024682;28;20518;-59
2022/01/08 04:42:24;;;;;;;2.03;1.30;;;1.10;99.90;;;;;;5006808;28;20198;-59
2022/01/08 04:44:52;;;;;;;1.20;1.20;;;1.10;99.90;;;;;;4984895;28;20438;-58
2022/01/08 04:47:18;;;;;;;1.20;1.20;;;1.10;99.90;;;;;;5005138;28;20167;-60
2022/01/08 04:49:43;;;;;;;1.30;1.30;;;1.10;99.90;;;;;;5009801;28;20764;-58
2022/01/08 04:52:09;;;;;;;1.47;1.37;;;1.10;99.90;;;;;;4989324;28;20661;-58
2022/01/08 04:54:34;;;;;;;1.30;1.30;;;1.10;99.90;;;;;;5007914;28;20175;-59
2022/01/08 04:57:00;;;;;;;1.47;1.37;;;1.10;99.90;;;;;;5013479;28;20182;-59
2022/01/08 04:59:26;;;;;;;1.33;1.30;;;1.10;99.90;;;;;;5002741;28;20188;-58
2022/01/08 05:01:51;;;;;;;1.20;1.20;;;1.10;99.90;;;;;;5004999;28;20689;-59
2022/01/08 05:04:17;;;;;;;1.50;1.40;;;1.10;99.90;;;;;;5011880;28;20262;-59
2022/01/08 05:06:42;;;;;;;1.37;1.27;;;1.10;99.90;;;;;;5013519;28;20182;-59
2022/01/08 05:09:08;;;;;;;1.40;1.30;;;1.10;99.90;;;;;;5006937;28;20185;-58
2022/01/08 05:11:34;;;;;;;1.30;1.20;;;1.10;99.90;;;;;;5000994;28;20213;-59
2022/01/08 05:13:59;;;;;;;1.10;1.10;;;1.10;99.90;;;;;;5006602;28;20198;-59
2022/01/08 05:16:27;;;;;;;1.27;1.20;;;1.10;99.90;;;;;;5009311;28;20597;-59
2022/01/08 05:18:54;;;;;;;1.53;1.43;;;1.10;99.90;;;;;;5019310;28;20289;-59
2022/01/08 05:23:48;;;;;;;1.37;1.20;;;1.10;99.90;;;;;;4993862;28;20544;-58
2022/01/08 05:26:15;;;;;;;1.27;1.17;;;1.10;99.90;;;;;;4988616;28;20432;-59
2022/01/08 05:28:41;;;;;;;1.20;1.03;;;1.10;99.90;;;;;;5012757;28;20418;-58
2022/01/08 05:31:07;;;;;;;1.30;1.30;;;1.10;99.90;;;;;;4989849;28;20470;-58
2022/01/08 05:33:33;;;;;;;1.30;1.20;;;1.10;99.90;;;;;;4999938;28;20521;-59
2022/01/08 05:35:58;;;;;;;1.07;0.90;;;1.10;99.90;;;;;;5018822;28;21078;-58
2022/01/08 05:38:24;;;;;;;0.90;0.90;;;1.20;99.90;;;;;;5009170;28;20175;-58
2022/01/08 05:40:50;;;;;;;1.07;1.07;;;1.20;99.90;;;;;;5011588;28;20210;-58
2022/01/08 05:43:16;;;;;;;4.93;1.50;;;1.10;99.90;;;;;;5005504;28;20289;-58
2022/01/08 05:45:41;;;;;;;0.90;0.90;;;1.20;99.90;;;;;;5008858;28;20189;-59
2022/01/08 05:48:08;;;;;;;0.80;0.80;;;1.10;99.90;;;;;;5009595;28;20258;-58
2022/01/08 05:50:34;;;;;;;1.00;1.00;;;1.20;99.90;;;;;;4994767;28;20206;-58
2022/01/08 05:53:00;;;;;;;0.80;0.80;;;1.20;99.90;;;;;;4988652;28;20428;-58
2022/01/08 05:55:25;;;;;;;1.23;1.00;;;1.20;99.90;;;;;;5018386;28;20191;-58
2022/01/08 05:57:51;;;;;;;1.23;0.93;;;1.20;99.90;;;;;;5009960;28;20588;-58
2022/01/08 06:00:17;;;;;;;1.23;0.90;;;1.20;99.90;;;;;;5006087;28;20662;-59
2022/01/08 06:02:42;;;;;;;0.93;0.93;;;1.20;99.90;;;;;;5006610;28;20220;-59
2022/01/08 06:05:08;;;;;;;0.87;0.87;;;1.20;99.90;;;;;;5007407;28;20420;-58
2022/01/08 06:07:34;;;;;;;0.90;0.90;;;1.20;99.90;;;;;;5007337;28;20564;-58
2022/01/08 06:10:00;;;;;;;0.90;0.90;;;1.30;99.90;;;;;;5008174;28;20432;-58
2022/01/08 06:12:26;;;;;;;0.90;0.90;;;1.30;99.90;;;;;;5001907;28;20186;-57
2022/01/08 06:14:52;;;;;;;1.00;1.00;;;1.30;99.90;;;;;;5009434;28;20457;-58
2022/01/08 06:17:17;;;;;;;2.83;0.90;;;1.30;99.90;;;;;;5012674;28;20174;-58
2022/01/08 06:19:43;;;;;;;1.00;1.00;;;1.30;99.90;;;;;;5006218;28;20184;-59
2022/01/08 06:22:09;;;;;;;1.00;1.00;;;1.30;99.90;;;;;;5001449;28;20202;-59
2022/01/08 06:24:34;;;;;;;0.80;0.80;;;1.20;99.90;;;;;;5008097;28;20168;-59
2022/01/08 06:27:00;;;;;;;0.87;0.87;;;1.20;99.90;;;;;;5000100;28;20611;-58
2022/01/08 06:29:26;;;;;;;0.90;0.90;;;1.20;99.90;;;;;;5006586;28;20183;-60
2022/01/08 06:31:53;;;;;;;1.40;1.20;;;1.10;99.90;;;;;;5008575;28;20693;-59
2022/01/08 06:34:19;;;;;;;1.30;1.10;;;1.10;99.90;;;;;;5021128;28;20597;-59
2022/01/08 06:36:47;;;;;;;1.00;1.00;;;1.00;99.90;;;;;;5005381;28;20423;-56
2022/01/08 06:39:13;;;;;;;0.93;0.93;;;1.00;99.90;;;;;;5003811;28;20434;-59
2022/01/08 06:41:38;;;;;;;0.90;0.90;;;0.90;99.90;;;;;;5006535;28;21059;-57
2022/01/08 06:44:05;;;;;;;1.00;1.00;;;0.90;99.90;;;;;;4995522;28;20517;-59
2022/01/08 06:46:30;;;;;;;0.90;0.90;;;0.80;99.90;;;;;;5018850;28;20166;-58
2022/01/08 06:48:56;;;;;;;2.70;1.20;;;0.80;99.90;;;;;;5014758;28;20810;-59
2022/01/08 06:51:21;;;;;;;1.17;1.07;;;0.80;99.90;;;;;;5004970;28;20214;-59
2022/01/08 06:53:47;;;;;;;1.37;1.10;;;0.80;99.90;;;;;;5008743;28;20175;-59
2022/01/08 06:56:13;;;;;;;1.00;1.00;;;0.80;99.90;;;;;;5005809;28;20171;-61
2022/01/08 06:58:38;;;;;;;1.20;1.13;;;0.80;99.90;;;;;;5003519;28;20604;-59
2022/01/08 07:01:04;;;;;;;1.00;1.00;;;0.80;99.90;;;;;;5003394;28;20202;-59
2022/01/08 07:03:30;;;;;;;2.17;1.20;;;0.80;99.90;;;;;;5011686;28;20278;-58
2022/01/08 07:05:55;;;;;;;0.90;0.90;;;0.70;99.90;;;;;;5011997;28;20543;-59
2022/01/08 07:08:21;;;;;;;1.00;1.00;;;0.70;99.90;;;;;;5007873;28;20174;-59
2022/01/08 07:10:47;;;;;;;1.00;1.00;;;0.70;99.90;;;;;;5006722;28;20190;-58
2022/01/08 07:13:12;;;;;;;1.23;1.00;;;0.70;99.90;;;;;;5008903;28;20266;-57
2022/01/08 07:15:38;;;;;;;1.37;1.13;;;0.70;99.90;;;;;;4988355;28;20187;-58
2022/01/08 07:18:04;;;;;;;1.63;1.00;;;0.70;99.90;;;;;;5004188;28;20507;-59
2022/01/08 07:20:29;;;;;;;1.00;1.00;;;0.70;99.90;;;;;;5009885;28;20201;-56
2022/01/08 07:22:55;;;;;;;1.43;1.00;;;0.70;99.90;;;;;;5005735;28;20202;-59
2022/01/08 07:25:21;;;;;;;2.20;1.20;;;0.70;99.90;;;;;;4993427;28;20699;-58
2022/01/08 07:27:46;;;;;;;1.50;1.40;;;0.70;99.90;;;;;;5010390;28;20167;-58
2022/01/08 07:30:12;;;;;;;1.83;1.30;;;0.60;99.90;;;;;;5002942;28;20197;-58
2022/01/08 07:32:49;;;;;;;1.40;1.20;;;0.70;99.90;;;;;;5003711;28;20262;-60
2022/01/08 07:35:16;;;;;;;1.97;1.43;;;0.60;99.90;;;;;;5005863;28;20178;-57
2022/01/08 07:37:43;;;;;;;2.87;1.70;;;0.60;99.90;;;;;;5005954;28;20444;-55
2022/01/08 07:40:10;;;;;;;2.20;1.90;;;0.60;99.90;;;;;;5003607;28;20468;-56
2022/01/08 07:42:36;;;;;;;1.40;1.33;;;0.60;99.90;;;;;;5005779;28;20475;-61
2022/01/08 07:45:03;;;;;;;1.20;1.20;;;0.60;99.90;;;;;;5006822;28;20434;-62
2022/01/08 07:47:29;;;;;;;1.40;1.30;;;0.60;99.90;;;;;;5001945;28;20671;-60
2022/01/08 07:49:55;;;;;;;1.43;1.33;;;0.60;99.90;;;;;;5005768;28;20427;-57
2022/01/08 07:52:20;;;;;;;2.63;1.60;;;0.70;99.90;;;;;;5004713;28;20226;-59
2022/01/08 07:54:46;;;;;;;2.77;1.50;;;0.70;99.90;;;;;;5005032;28;20484;-60
2022/01/08 07:57:12;;;;;;;2.40;1.67;;;0.70;99.90;;;;;;5004577;28;20190;-55
2022/01/08 07:59:37;;;;;;;2.20;2.00;;;0.70;99.90;;;;;;5014977;28;20181;-61
2022/01/08 08:02:03;;;;;;;2.77;2.10;;;0.60;99.90;;;;;;5009204;28;20202;-56
2022/01/08 08:04:29;;;;;;;2.23;2.03;;;0.60;99.90;;;;;;5001736;28;20294;-57
2022/01/08 08:06:54;;;;;;;2.60;2.40;;;0.60;99.90;;;;;;5005240;28;20187;-58
2022/01/08 08:09:20;;;;;;;2.50;1.80;;;0.60;99.90;;;;;;5007959;28;20171;-56
2022/01/08 08:11:46;;;;;;;2.87;2.20;;;0.70;99.90;;;;;;5002144;28;20201;-56
2022/01/08 08:14:11;;;;;;;2.00;1.80;;;0.70;99.90;;;;;;5000379;28;20232;-57
2022/01/08 08:16:37;;;;;;;1.90;1.80;;;0.70;99.90;;;;;;5004834;28;20547;-58
2022/01/08 08:19:03;;;;;;;3.47;1.73;;;0.70;99.90;;;;;;5002971;28;20574;-61
2022/01/08 08:21:29;;;;;;;2.30;2.10;;;0.70;99.90;;;;;;5003344;28;20591;-56
2022/01/08 08:23:55;;;;;;;4.63;2.20;;;0.80;99.90;;;;;;5004095;28;20506;-58
2022/01/08 08:26:21;;;;;;;2.47;2.00;;;0.80;99.90;;;;;;5000499;28;21010;-63
2022/01/08 08:28:46;;;;;;;2.20;2.00;;;0.90;99.90;;;;;;5007218;28;20182;-61
2022/01/08 08:31:12;;;;;;;1.80;1.70;;;0.90;99.90;;;;;;5003475;28;20514;-61
2022/01/08 08:33:38;;;;;;;2.50;2.10;;;1.00;99.90;;;;;;5003458;28;20179;-58
2022/01/08 08:36:05;;;;;;;1.90;1.60;;;1.00;99.90;;;;;;5008484;28;20253;-58
2022/01/08 08:38:31;;;;;;;3.50;2.00;;;0.90;99.90;;;;;;4999816;28;20433;-61
2022/01/08 08:40:56;;;;;;;2.60;2.07;;;0.90;99.90;;;;;;4977782;28;20519;-57
2022/01/08 08:43:22;;;;;;;1.60;1.50;;;0.80;99.90;;;;;;4996164;28;20301;-58
2022/01/08 08:45:48;;;;;;;2.37;2.00;;;0.80;99.90;;;;;;5004363;28;20178;-62
2022/01/08 08:48:15;;;;;;;3.40;1.97;;;0.90;99.90;;;;;;5004892;28;20847;-61
2022/01/08 08:50:42;;;;;;;1.97;1.70;;;0.90;99.90;;;;;;4998113;28;20469;-62
2022/01/08 08:53:08;;;;;;;1.70;1.60;;;1.00;99.90;;;;;;4999238;28;20977;-62
2022/01/08 08:55:33;;;;;;;2.37;1.93;;;1.00;99.90;;;;;;4995800;28;21072;-58
2022/01/08 08:57:59;;;;;;;2.03;1.63;;;1.10;99.90;;;;;;4996926;28;20477;-61
2022/01/08 09:00:25;;;;;;;4.03;2.00;;;1.30;99.90;;;;;;4994918;28;20297;-67
2022/01/08 09:02:51;;;;;;;3.37;1.73;;;1.40;99.90;;;;;;4986089;28;20741;-64
2022/01/08 09:05:16;;;;;;;3.57;1.90;;;1.40;99.90;;;;;;5004117;28;20796;-66
2022/01/08 09:07:42;;;;;;;2.23;1.70;;;1.60;99.90;;;;;;5001793;28;20184;-67
2022/01/08 09:10:09;;;;;;;1.83;1.60;;;1.70;99.90;;;;;;5005144;28;20175;-60
2022/01/08 09:12:37;;;;;;;9.20;2.60;;;1.80;99.90;;;;;;4999249;28;20183;-65
2022/01/08 09:15:04;;;;;;;2.77;1.90;;;1.80;99.90;;;;;;4988626;28;20493;-64
2022/01/08 09:17:30;;;;;;;1.90;1.60;;;1.90;99.90;;;;;;5001297;28;20439;-64
2022/01/08 09:19:56;;;;;;;2.77;1.63;;;1.90;99.90;;;;;;4986064;28;20455;-61
2022/01/08 09:22:21;;;;;;;8.43;2.13;;;1.80;99.90;;;;;;5005256;28;20257;-62
2022/01/08 09:24:47;;;;;;;2.77;1.47;;;1.80;99.90;;;;;;5004931;28;20194;-60
2022/01/08 09:27:13;;;;;;;35.27;11.23;;;1.80;99.90;;;;;;4986295;28;20233;-60
2022/01/08 09:29:39;;;;;;;8.13;3.90;;;1.80;99.90;;;;;;4999431;28;20734;-56
2022/01/08 09:32:08;;;;;;;2.20;1.93;;;1.90;99.90;;;;;;5000879;28;20205;-56
2022/01/08 09:34:36;;;;;;;7.40;2.50;;;2.00;99.90;;;;;;5005247;28;20180;-54
2022/01/08 09:37:03;;;;;;;6.00;1.70;;;2.10;99.90;;;;;;4999029;28;20439;-59
2022/01/08 09:39:29;;;;;;;2.93;1.70;;;2.30;99.90;;;;;;5000800;28;20778;-59
2022/01/08 09:41:55;;;;;;;2.80;1.73;;;2.30;99.50;;;;;;5002379;28;20459;-56
2022/01/08 09:44:21;;;;;;;1.73;1.63;;;2.30;99.20;;;;;;4980466;28;20420;-60
2022/01/08 09:46:47;;;;;;;2.60;1.53;;;2.30;99.00;;;;;;4979283;28;20184;-57
2022/01/08 09:49:12;;;;;;;2.10;1.90;;;2.30;96.40;;;;;;5002867;28;20458;-57
2022/01/08 09:51:38;;;;;;;4.97;2.03;;;2.20;96.90;;;;;;4998254;28;20215;-56
2022/01/08 09:54:04;;;;;;;3.67;1.80;;;2.10;97.60;;;;;;5003044;28;20247;-56
2022/01/08 09:56:31;;;;;;;2.80;2.27;;;2.00;97.80;;;;;;5000238;28;20749;-59
2022/01/08 09:58:57;;;;;;;5.77;1.97;;;1.90;97.90;;;;;;4994450;28;20447;-57
2022/01/08 10:01:36;;;;;;;3.70;2.33;;;1.80;97.70;;;;;;5002830;28;20461;-57
2022/01/08 10:04:04;;;;;;;4.93;2.23;;;1.80;99.80;;;;;;4997549;28;20427;-58
2022/01/08 10:06:33;;;;;;;2.10;1.90;;;1.90;99.90;;;;;;5001971;28;20460;-58
2022/01/08 10:08:59;;;;;;;3.13;1.73;;;1.90;99.70;;;;;;4991053;28;20965;-59
2022/01/08 10:11:26;;;;;;;1.83;1.60;;;1.90;99.80;;;;;;5007609;28;20454;-59
2022/01/08 10:14:03;;;;;;;3.40;1.90;;;2.00;99.90;;;;;;5005060;28;20431;-59
2022/01/08 10:19:23;;;;;;;3.57;1.50;;;2.00;98.30;;;;;;5009824;28;20518;-59
2022/01/08 10:21:53;;;;;;;3.27;1.60;;;2.00;97.80;;;;;;5006190;28;20466;-58
2022/01/08 10:24:22;;;;;;;2.87;2.37;;;2.00;98.20;;;;;;5003749;28;20427;-56
2022/01/08 10:26:49;;;;;;;3.13;2.27;;;2.00;98.80;;;;;;5002453;28;20426;-59
2022/01/08 10:29:18;;;;;;;3.23;2.20;;;2.00;98.50;;;;;;4992805;28;20854;-58
2022/01/08 10:31:50;;;;;;;5.20;2.80;;;2.00;99.60;;;;;;4998474;28;20451;-56
2022/01/08 10:34:24;;;;;;;5.70;1.90;;;2.00;99.90;;;;;;5004848;28;22054;-56
2022/01/08 10:37:03;;;;;;;2.80;2.30;;;2.00;98.70;;;;;;5002561;28;20479;-58
2022/01/08 10:39:38;;;;;;;2.83;2.30;;;2.00;99.80;;;;;;5005483;28;20441;-56
2022/01/08 10:42:09;;;;;;;7.33;3.30;;;2.10;99.30;;;;;;5007672;28;20465;-58
2022/01/08 10:44:35;;;;;;;2.53;2.20;;;2.10;99.50;;;;;;4986835;28;20447;-56
2022/01/08 10:47:02;;;;;;;6.47;3.30;;;2.00;98.60;;;;;;5005926;28;20512;-58
2022/01/08 10:49:31;;;;;;;8.63;3.70;;;2.00;99.10;;;;;;5003817;28;20434;-59
2022/01/08 10:51:59;;;;;;;5.80;2.50;;;2.00;99.60;;;;;;4985639;28;20490;-59
2022/01/08 10:54:29;;;;;;;5.07;2.00;;;2.00;99.90;;;;;;5008844;28;20787;-60
2022/01/08 10:56:59;;;;;;;3.90;2.20;;;2.10;99.90;;;;;;5004941;28;22198;-60
2022/01/08 10:59:26;;;;;;;5.07;2.10;;;2.10;99.90;;;;;;5006244;28;21030;-59
2022/01/08 11:01:56;;;;;;;5.10;2.67;;;2.20;99.90;;;;;;5002098;28;20495;-58
2022/01/08 11:04:54;;;;;;;5.23;2.23;;;2.50;99.90;;;;;;5008456;28;20426;-60
2022/01/08 11:07:21;;;;;;;7.60;2.50;;;2.80;99.90;;;;;;5001480;28;20441;-60
2022/01/08 11:09:50;;;;;;;3.63;2.20;;;3.10;98.50;;;;;;5004463;28;20578;-58
2022/01/08 11:12:32;;;;;;;3.23;2.50;;;3.20;96.70;;;;;;4989109;28;20486;-58
2022/01/08 11:15:24;;;;;;;2.30;2.03;;;3.30;97.80;;;;;;5002248;28;20522;-58
2022/01/08 11:17:56;;;;;;;2.10;1.80;;;3.50;96.70;;;;;;5007475;28;20432;-57
2022/01/08 11:20:28;;;;;;;2.40;2.10;;;3.70;95.60;;;;;;4999542;28;20485;-57
2022/01/08 11:23:00;;;;;;;3.77;1.90;;;4.00;94.60;;;;;;4999641;28;23039;-58
2022/01/08 11:25:30;;;;;;;4.97;2.13;;;4.20;93.30;;;;;;5005866;28;20433;-58
2022/01/08 11:28:16;;;;;;;2.87;1.50;;;4.50;91.60;;;;;;5013950;28;20430;-59
2022/01/08 11:30:52;;;;;;;1.67;1.57;;;4.60;79.50;;;;;;5003094;28;20533;-60
2022/01/08 11:33:24;;;;;;;2.40;1.63;;;4.50;77.90;;;;;;5002712;28;20444;-61
2022/01/08 11:35:51;;;;;;;3.07;1.40;;;4.30;79.70;;;;;;5005088;28;20427;-58
2022/01/08 11:38:20;;;;;;;1.47;1.37;;;4.10;75.00;;;;;;5003997;28;21021;-60
2022/01/08 11:40:48;;;;;;;1.57;1.30;;;3.90;71.90;;;;;;5006355;28;20461;-59
2022/01/08 11:43:16;;;;;;;1.37;1.27;;;3.70;78.40;;;;;;5006652;28;20467;-58
2022/01/08 11:46:05;;;;;;;2.63;2.10;;;3.60;77.30;;;;;;5009122;28;20420;-60
2022/01/08 11:48:39;;;;;;;1.80;1.50;;;3.60;77.90;;;;;;5002257;28;21022;-61
2022/01/08 11:51:07;;;;;;;1.10;1.10;;;3.50;80.90;;;;;;5002267;28;20462;-61
2022/01/08 11:53:45;;;;;;;3.60;1.10;;;3.40;78.80;;;;;;5005014;28;20525;-59
2022/01/08 11:56:27;;;;;;;3.17;1.23;;;3.30;82.10;;;;;;5004539;28;20503;-60
2022/01/08 11:59:14;;;;;;;2.37;1.20;;;3.20;85.80;;;;;;4986442;28;20467;-61
2022/01/08 12:01:43;;;;;;;1.30;1.20;;;3.10;90.10;;;;;;4994866;28;20497;-60
2022/01/08 12:04:26;;;;;;;2.97;1.30;;;3.10;89.90;;;;;;5002620;28;20436;-60
2022/01/08 12:06:51;;;;;;;1.10;1.03;;;3.10;91.10;;;;;;4991083;28;20441;-60
2022/01/08 12:09:25;;;;;;;1.30;1.20;;;3.10;90.90;;;;;;4991120;28;20433;-60
2022/01/08 12:11:57;;;;;;;2.20;1.30;;;3.10;92.00;;;;;;4997480;28;20197;-58
2022/01/08 12:14:27;;;;;;;1.40;1.30;;;3.10;91.40;;;;;;4989941;28;21858;-61
2022/01/08 12:17:19;;;;;;;1.40;1.30;;;3.10;91.10;;;;;;4993792;28;21258;-59
2022/01/08 12:19:46;;;;;;;1.23;1.13;;;3.10;85.90;;;;;;4995768;28;20849;-62
2022/01/08 12:22:21;;;;;;;1.37;1.27;;;3.00;86.60;;;;;;4993853;28;21581;-63
2022/01/08 12:24:52;;;;;;;1.30;1.20;;;3.00;88.30;;;;;;4990392;28;20442;-59
2022/01/08 12:27:46;;;;;;;2.17;1.20;;;2.90;87.20;;;;;;4991516;28;20431;-57
2022/01/08 12:30:15;;;;;;;1.30;1.20;;;2.80;86.90;;;;;;4987861;28;20432;-60
2022/01/08 12:32:45;;;;;;;1.50;1.27;;;2.70;90.60;;;;;;4989503;28;20446;-60
2022/01/08 12:35:37;;;;;;;3.03;1.70;;;2.70;90.90;;;;;;4997204;28;20550;-60
2022/01/08 12:38:06;;;;;;;1.70;1.60;;;2.60;91.70;;;;;;4997554;28;20521;-59
2022/01/08 12:40:38;;;;;;;2.70;1.73;;;2.50;92.70;;;;;;4999814;28;20903;-60
2022/01/08 12:43:29;;;;;;;1.47;1.37;;;2.50;93.30;;;;;;5000858;28;20490;-59
2022/01/08 12:46:13;;;;;;;1.40;1.30;;;2.50;93.50;;;;;;5011506;28;21254;-57
2022/01/08 12:49:05;;;;;;;2.97;1.33;;;2.60;92.70;;;;;;5022215;28;20455;-62
2022/01/08 12:52:06;;;;;;;2.23;2.03;;;2.60;93.40;;;;;;5045252;22;21583;-53
2022/01/08 12:54:33;;;;;;;1.57;1.47;;;2.60;94.20;;;;;;4943093;28;20445;-59
2022/01/08 12:57:05;;;;;;;2.03;1.83;;;2.70;94.70;;;;;;4995195;28;20532;-55
2022/01/08 12:59:36;;;;;;;2.87;1.43;;;2.70;93.90;;;;;;4991517;28;20659;-56
2022/01/08 13:02:06;;;;;;;3.47;1.70;;;2.70;93.20;;;;;;4991008;28;20474;-57
2022/01/08 13:04:32;;;;;;;1.73;1.50;;;2.60;93.80;;;;;;4978819;28;20995;-62
2022/01/08 13:06:57;;;;;;;1.30;1.20;;;2.60;94.50;;;;;;4980418;28;20445;-61
2022/01/08 13:09:23;;;;;;;1.60;1.50;;;2.60;94.00;;;;;;4983161;28;20464;-58
2022/01/08 13:11:49;;;;;;;3.87;1.40;;;2.60;93.20;;;;;;4980838;28;20201;-62
2022/01/08 13:14:21;;;;;;;1.83;1.73;;;2.50;93.20;;;;;;4983968;28;20173;-56
2022/01/08 13:16:49;;;;;;;4.27;1.60;;;2.50;93.90;;;;;;4976831;28;20428;-64
2022/01/08 13:19:17;;;;;;;1.50;1.37;;;2.40;94.30;;;;;;4983187;28;20667;-64
2022/01/08 13:21:45;;;;;;;2.60;1.53;;;2.40;93.90;;;;;;4983679;28;21092;-63
2022/01/08 13:24:21;;;;;;;1.73;1.50;;;2.40;94.50;;;;;;4987725;28;20432;-59
2022/01/08 13:26:59;;;;;;;3.03;1.40;;;2.40;92.60;;;;;;4982602;28;20468;-58